createdAt,value
2019-01-04T00:00:36.486Z,99.90
2019-01-04T00:03:06.962Z,99.90
2019-01-04T00:05:37.490Z,99.90
2019-01-04T00:08:07.917Z,99.90
2019-01-04T00:10:38.345Z,99.90
2019-01-04T00:13:08.773Z,99.90
2019-01-04T00:15:39.208Z,99.90
2019-01-04T00:18:09.689Z,99.90
2019-01-04T00:20:40.154Z,99.90
2019-01-04T00:23:10.593Z,99.90
2019-01-04T00:25:41.009Z,99.90
2019-01-04T00:28:11.447Z,99.90
2019-01-04T00:30:41.869Z,99.90
2019-01-04T00:33:12.339Z,99.90
2019-01-04T00:35:52.559Z,99.90
2019-01-04T00:38:22.985Z,99.90
2019-01-04T00:40:53.401Z,99.90
2019-01-04T00:43:23.929Z,99.90
2019-01-04T00:45:54.357Z,99.90
2019-01-04T00:48:24.845Z,99.90
2019-01-04T00:50:55.324Z,99.90
2019-01-04T00:53:37.018Z,99.90
2019-01-04T00:56:23.402Z,99.90
2019-01-04T00:59:30.404Z,99.90
2019-01-04T01:02:56.834Z,99.90
2019-01-04T01:06:07.934Z,99.90
2019-01-04T01:09:14.088Z,99.90
2019-01-04T01:12:17.386Z,99.90
2019-01-04T01:15:19.138Z,99.90
2019-01-04T01:18:16.812Z,99.90
2019-01-04T01:21:30.660Z,99.90
2019-01-04T01:24:42.762Z,99.90
2019-01-04T01:27:46.988Z,99.90
2019-01-04T01:30:58.154Z,99.90
2019-01-04T01:34:00.750Z,99.90
2019-01-04T01:36:59.845Z,99.90
2019-01-04T01:39:47.169Z,99.90
2019-01-04T01:42:58.454Z,99.90
2019-01-04T01:46:14.131Z,99.90
2019-01-04T01:49:17.542Z,99.90
2019-01-04T01:51:58.207Z,99.90
2019-01-04T01:54:28.898Z,99.90
2019-01-04T01:56:59.738Z,99.90
2019-01-04T01:59:30.194Z,99.90
2019-01-04T02:02:00.622Z,99.90
2019-01-04T02:04:42.932Z,99.90
2019-01-04T02:07:13.365Z,99.90
2019-01-04T02:09:43.784Z,99.90
2019-01-04T02:12:14.210Z,99.90
2019-01-04T02:14:44.648Z,99.90
2019-01-04T02:17:15.177Z,99.90
2019-01-04T02:19:45.806Z,99.90
2019-01-04T02:22:16.438Z,99.90
2019-01-04T02:24:47.070Z,99.90
2019-01-04T02:27:17.702Z,99.90
2019-01-04T02:29:48.334Z,99.90
2019-01-04T02:32:18.773Z,99.90
2019-01-04T02:34:49.333Z,99.90
2019-01-04T02:37:19.820Z,99.90
2019-01-04T02:39:50.245Z,99.90
2019-01-04T02:42:20.672Z,99.90
2019-01-04T02:44:51.090Z,99.90
2019-01-04T02:47:21.528Z,99.90
2019-01-04T02:49:51.942Z,99.90
2019-01-04T02:52:22.370Z,99.90
2019-01-04T02:54:53.105Z,99.90
2019-01-04T02:57:23.837Z,99.90
2019-01-04T02:59:54.277Z,99.90
2019-01-04T03:02:25.014Z,99.90
2019-01-04T03:05:01.954Z,99.90
2019-01-04T03:07:32.418Z,99.90
2019-01-04T03:10:02.849Z,99.90
2019-01-04T03:12:57.916Z,99.90
2019-01-04T03:15:28.370Z,99.90
2019-01-04T03:17:58.792Z,99.90
2019-01-04T03:20:29.241Z,99.90
2019-01-04T03:22:59.651Z,99.90
2019-01-04T03:25:30.084Z,99.90
2019-01-04T03:28:00.663Z,99.90
2019-01-04T03:30:31.170Z,99.90
2019-01-04T03:33:01.596Z,99.90
2019-01-04T03:35:32.127Z,99.90
2019-01-04T03:38:02.735Z,99.90
2019-01-04T03:40:33.366Z,99.90
2019-01-04T03:44:14.244Z,99.90
2019-01-04T03:46:44.661Z,99.90
2019-01-04T03:49:15.097Z,99.90
2019-01-04T03:51:45.524Z,99.90
2019-01-04T03:54:41.928Z,99.90
2019-01-04T03:57:12.799Z,99.90
2019-01-04T04:00:01.977Z,99.90
2019-01-04T04:02:35.728Z,99.90
2019-01-04T04:05:06.146Z,99.90
2019-01-04T04:07:36.623Z,99.90
2019-01-04T04:10:07.403Z,99.90
2019-01-04T04:12:37.882Z,99.90
2019-01-04T04:15:08.305Z,99.90
2019-01-04T04:17:38.735Z,99.90
2019-01-04T04:20:09.381Z,99.90
2019-01-04T04:22:39.802Z,99.90
2019-01-04T04:25:10.434Z,99.90
2019-01-04T04:27:41.064Z,99.90
2019-01-04T04:30:11.482Z,99.90
2019-01-04T04:32:41.963Z,99.90
2019-01-04T04:35:12.455Z,99.90
2019-01-04T04:37:42.865Z,99.90
2019-01-04T04:40:13.303Z,99.90
2019-01-04T04:42:43.736Z,99.90
2019-01-04T04:45:14.156Z,99.90
2019-01-04T04:47:44.587Z,99.90
2019-01-04T04:50:15.011Z,99.90
2019-01-04T04:52:45.436Z,99.90
2019-01-04T04:55:15.854Z,99.90
2019-01-04T04:57:46.289Z,99.90
2019-01-04T05:00:16.922Z,99.90
2019-01-04T05:02:47.562Z,99.90
2019-01-04T05:05:18.082Z,99.90
2019-01-04T05:07:48.510Z,99.90
2019-01-04T05:10:18.926Z,99.90
2019-01-04T05:12:49.364Z,99.90
2019-01-04T05:15:19.784Z,99.90
2019-01-04T05:17:50.206Z,99.90
2019-01-04T05:20:20.645Z,99.90
2019-01-04T05:22:51.073Z,99.90
2019-01-04T05:25:21.500Z,99.90
2019-01-04T05:27:51.929Z,99.90
2019-01-04T05:30:22.361Z,99.90
2019-01-04T05:32:52.781Z,99.90
2019-01-04T05:35:23.412Z,99.90
2019-01-04T05:37:54.046Z,99.90
2019-01-04T05:40:24.679Z,99.90
2019-01-04T05:42:55.308Z,99.90
2019-01-04T05:45:25.733Z,99.90
2019-01-04T05:47:56.162Z,99.90
2019-01-04T05:50:26.577Z,99.90
2019-01-04T05:52:57.016Z,99.90
2019-01-04T05:55:27.442Z,99.90
2019-01-04T05:57:57.869Z,99.90
2019-01-04T06:00:38.236Z,99.90
2019-01-04T06:03:08.978Z,99.90
2019-01-04T06:05:42.453Z,99.90
2019-01-04T06:08:12.878Z,99.90
2019-01-04T06:10:43.316Z,99.90
2019-01-04T06:13:13.743Z,99.90
2019-01-04T06:15:59.020Z,99.90
2019-01-04T06:18:29.650Z,99.90
2019-01-04T06:21:00.077Z,99.90
2019-01-04T06:23:30.510Z,99.90
2019-01-04T06:26:00.931Z,99.90
2019-01-04T06:28:31.345Z,99.90
2019-01-04T06:31:01.773Z,99.90
2019-01-04T06:33:41.122Z,99.90
2019-01-04T06:36:11.753Z,99.90
2019-01-04T06:38:42.385Z,99.90
2019-01-04T06:41:27.763Z,99.90
2019-01-04T06:43:58.188Z,99.90
2019-01-04T06:46:28.616Z,99.90
2019-01-04T06:49:00.477Z,99.90
2019-01-04T06:51:31.111Z,99.90
2019-01-04T06:54:01.742Z,99.90
2019-01-04T06:56:32.373Z,99.90
2019-01-04T06:59:03.005Z,99.90
2019-01-04T07:01:33.427Z,99.90
2019-01-04T07:04:04.169Z,99.90
2019-01-04T07:06:34.816Z,99.90
2019-01-04T07:09:06.070Z,99.90
2019-01-04T07:11:36.478Z,99.90
2019-01-04T07:14:06.999Z,99.90
2019-01-04T07:16:37.426Z,99.90
2019-01-04T07:19:07.852Z,99.90
2019-01-04T07:21:38.269Z,99.90
2019-01-04T07:24:12.078Z,99.90
2019-01-04T07:26:42.502Z,99.90
2019-01-04T07:29:12.940Z,99.90
2019-01-04T07:31:43.522Z,99.90
2019-01-04T07:34:13.990Z,99.90
2019-01-04T07:37:02.449Z,99.90
2019-01-04T07:39:32.992Z,99.90
2019-01-04T07:42:03.406Z,99.90
2019-01-04T07:44:33.832Z,99.90
2019-01-04T07:47:04.253Z,99.90
2019-01-04T07:49:34.676Z,99.90
2019-01-04T07:52:08.077Z,99.90
2019-01-04T07:54:39.840Z,99.90
2019-01-04T07:57:10.258Z,99.90
2019-01-04T07:59:40.685Z,99.90
2019-01-04T08:02:47.577Z,99.90
2019-01-04T08:05:20.303Z,99.90
2019-01-04T08:07:50.918Z,99.90
2019-01-04T08:10:21.406Z,99.90
2019-01-04T08:13:11.269Z,99.90
2019-01-04T08:15:41.718Z,99.90
2019-01-04T08:19:02.637Z,99.90
2019-01-04T08:22:08.578Z,99.90
2019-01-04T08:24:39.026Z,99.90
2019-01-04T08:27:09.442Z,99.90
2019-01-04T08:29:39.869Z,99.90
2019-01-04T08:32:10.298Z,99.90
2019-01-04T08:34:40.734Z,99.90
2019-01-04T08:37:11.161Z,99.90
2019-01-04T08:39:41.726Z,99.90
2019-01-04T08:42:12.425Z,99.90
2019-01-04T08:44:42.851Z,99.90
2019-01-04T08:47:13.278Z,99.90
2019-01-04T08:49:43.694Z,99.90
2019-01-04T08:52:15.454Z,99.90
2019-01-04T08:54:45.890Z,99.90
2019-01-04T08:57:16.523Z,99.90
2019-01-04T09:00:22.938Z,99.90
2019-01-04T09:02:53.545Z,99.90
2019-01-04T09:05:24.258Z,99.90
2019-01-04T09:07:54.686Z,99.90
2019-01-04T09:10:25.129Z,99.90
2019-01-04T09:12:55.538Z,99.90
2019-01-04T09:15:26.172Z,99.90
2019-01-04T09:17:56.802Z,99.90
2019-01-04T09:20:27.439Z,99.90
2019-01-04T09:22:58.066Z,99.90
2019-01-04T09:25:28.492Z,99.90
2019-01-04T09:27:58.920Z,99.90
2019-01-04T09:30:29.346Z,99.90
2019-01-04T09:32:59.762Z,99.90
2019-01-04T09:35:30.192Z,99.90
2019-01-04T09:38:00.617Z,99.90
2019-01-04T09:40:31.093Z,99.90
2019-01-04T09:43:01.590Z,99.90
2019-01-04T09:45:32.003Z,99.90
2019-01-04T09:48:02.441Z,99.90
2019-01-04T09:50:32.866Z,96.70
2019-01-04T09:53:03.292Z,91.30
2019-01-04T09:55:33.709Z,88.10
2019-01-04T09:58:04.145Z,90.10
2019-01-04T10:00:34.562Z,68.10
2019-01-04T10:03:05.094Z,61.90
2019-01-04T10:05:36.468Z,56.60
2019-01-04T10:08:06.880Z,53.40
2019-01-04T10:10:37.374Z,49.20
2019-01-04T10:13:07.835Z,48.50
2019-01-04T10:15:38.260Z,44.70
2019-01-04T10:18:09.190Z,42.80
2019-01-04T10:20:39.620Z,42.10
2019-01-04T10:23:10.260Z,40.40
2019-01-04T10:25:40.892Z,39.80
2019-01-04T10:28:11.523Z,36.30
2019-01-04T10:30:41.950Z,36.00
2019-01-04T10:33:13.388Z,35.90
2019-01-04T10:35:43.818Z,34.90
2019-01-04T10:38:14.246Z,33.60
2019-01-04T10:40:44.681Z,34.20
2019-01-04T10:43:15.314Z,33.10
2019-01-04T10:45:45.740Z,32.30
2019-01-04T10:48:16.158Z,31.60
2019-01-04T10:50:46.594Z,32.60
2019-01-04T10:53:17.021Z,31.70
2019-01-04T10:55:47.438Z,31.70
2019-01-04T10:58:17.876Z,31.00
2019-01-04T11:00:48.288Z,31.20
2019-01-04T11:03:18.935Z,29.80
2019-01-04T11:05:49.611Z,29.60
2019-01-04T11:08:20.082Z,29.50
2019-01-04T11:10:50.728Z,28.70
2019-01-04T11:13:21.359Z,29.00
2019-01-04T11:15:51.773Z,29.60
2019-01-04T11:18:22.203Z,30.60
2019-01-04T11:20:52.630Z,29.90
2019-01-04T11:23:57.844Z,29.20
2019-01-04T11:26:41.782Z,29.60
2019-01-04T11:29:39.379Z,29.40
2019-01-04T11:32:28.821Z,29.30
2019-01-04T11:35:49.530Z,29.10
2019-01-04T11:39:13.245Z,29.50
2019-01-04T11:42:10.093Z,29.20
2019-01-04T11:45:42.106Z,29.10
2019-01-04T11:48:47.679Z,28.40
2019-01-04T11:51:49.130Z,28.30
2019-01-04T11:54:23.221Z,27.00
2019-01-04T11:56:53.705Z,27.10
2019-01-04T11:59:24.126Z,26.80
2019-01-04T12:01:54.628Z,27.20
2019-01-04T12:04:25.238Z,28.20
2019-01-04T12:06:55.714Z,28.30
2019-01-04T12:09:26.141Z,28.40
2019-01-04T12:11:56.566Z,27.50
2019-01-04T12:14:26.994Z,26.40
2019-01-04T12:16:57.559Z,26.60
2019-01-04T12:19:27.962Z,27.00
2019-01-04T12:21:58.378Z,27.20
2019-01-04T12:24:28.806Z,27.80
2019-01-04T12:26:59.233Z,27.10
2019-01-04T12:29:29.659Z,27.30
2019-01-04T12:32:00.086Z,27.20
2019-01-04T12:34:30.523Z,27.20
2019-01-04T12:37:00.949Z,28.20
2019-01-04T12:39:31.366Z,29.40
2019-01-04T12:42:01.805Z,28.20
2019-01-04T12:44:33.242Z,27.30
2019-01-04T12:47:03.773Z,28.30
2019-01-04T12:49:34.224Z,28.50
2019-01-04T12:52:04.646Z,28.90
2019-01-04T12:54:35.076Z,28.80
2019-01-04T12:57:05.496Z,27.70
2019-01-04T12:59:35.919Z,27.90
2019-01-04T13:02:06.347Z,28.60
2019-01-04T13:04:36.835Z,27.80
2019-01-04T13:07:07.522Z,27.20
2019-01-04T13:09:37.926Z,26.80
2019-01-04T13:12:08.362Z,27.50
2019-01-04T13:14:38.790Z,27.20
2019-01-04T13:17:09.207Z,26.70
2019-01-04T13:19:39.694Z,27.20
2019-01-04T13:22:10.479Z,28.10
2019-01-04T13:24:40.905Z,28.50
2019-01-04T13:27:11.333Z,28.60
2019-01-04T13:29:41.749Z,28.60
2019-01-04T13:32:12.188Z,28.50
2019-01-04T13:34:42.771Z,28.10
2019-01-04T13:37:13.245Z,26.70
2019-01-04T13:39:43.661Z,27.00
2019-01-04T13:42:14.090Z,26.80
2019-01-04T13:44:44.518Z,25.60
2019-01-04T13:47:14.955Z,25.50
2019-01-04T13:49:45.474Z,25.50
2019-01-04T13:52:15.954Z,25.70
2019-01-04T13:54:46.429Z,25.90
2019-01-04T13:57:16.853Z,26.30
2019-01-04T13:59:47.281Z,25.80
2019-01-04T14:02:17.711Z,25.90
2019-01-04T14:04:48.318Z,25.60
2019-01-04T14:07:19.026Z,26.00
2019-01-04T14:09:49.517Z,26.00
2019-01-04T14:12:19.930Z,26.80
2019-01-04T14:14:50.358Z,27.10
2019-01-04T14:17:20.795Z,27.10
2019-01-04T14:19:51.210Z,28.70
2019-01-04T14:22:21.777Z,30.00
2019-01-04T14:24:52.270Z,30.70
2019-01-04T14:27:22.708Z,30.30
2019-01-04T14:29:53.125Z,30.00
2019-01-04T14:32:23.551Z,32.10
2019-01-04T14:34:53.979Z,32.30
2019-01-04T14:37:24.408Z,32.40
2019-01-04T14:39:54.842Z,34.80
2019-01-04T14:42:25.269Z,35.50
2019-01-04T14:44:55.697Z,34.50
2019-01-04T14:47:26.114Z,34.60
2019-01-04T14:49:56.551Z,35.80
2019-01-04T14:52:26.965Z,36.30
2019-01-04T14:54:57.450Z,35.10
2019-01-04T14:57:27.927Z,35.30
2019-01-04T14:59:58.566Z,35.30
2019-01-04T15:02:28.993Z,36.10
2019-01-04T15:04:59.482Z,37.70
2019-01-04T15:07:30.183Z,39.20
2019-01-04T15:10:00.580Z,40.80
2019-01-04T15:12:30.998Z,40.80
2019-01-04T15:15:01.431Z,40.20
2019-01-04T15:17:31.863Z,41.30
2019-01-04T15:20:02.390Z,44.40
2019-01-04T15:22:33.841Z,46.90
2019-01-04T15:25:04.269Z,48.90
2019-01-04T15:27:34.751Z,51.20
2019-01-04T15:30:05.783Z,52.80
2019-01-04T15:32:36.266Z,53.20
2019-01-04T15:35:06.811Z,54.20
2019-01-04T15:37:37.214Z,55.50
2019-01-04T15:40:09.117Z,56.90
2019-01-04T15:42:39.601Z,58.30
2019-01-04T15:45:10.901Z,59.60
2019-01-04T15:47:41.379Z,61.00
2019-01-04T15:50:12.115Z,62.30
2019-01-04T15:52:42.549Z,63.60
2019-01-04T15:55:12.966Z,66.00
2019-01-04T15:57:43.394Z,66.50
2019-01-04T16:00:14.479Z,67.50
2019-01-04T16:02:44.996Z,69.00
2019-01-04T16:05:15.606Z,70.40
2019-01-04T16:07:47.658Z,72.10
2019-01-04T16:10:25.666Z,73.30
2019-01-04T16:12:56.094Z,76.20
2019-01-04T16:15:26.527Z,76.80
2019-01-04T16:17:56.947Z,78.40
2019-01-04T16:20:27.384Z,80.10
2019-01-04T16:22:57.811Z,81.80
2019-01-04T16:25:28.226Z,83.30
2019-01-04T16:27:58.667Z,85.00
2019-01-04T16:30:29.715Z,87.00
2019-01-04T16:33:03.194Z,90.20
2019-01-04T16:35:33.623Z,90.70
2019-01-04T16:38:04.050Z,90.70
2019-01-04T16:40:34.478Z,91.40
2019-01-04T16:43:04.901Z,92.10
2019-01-04T16:45:36.762Z,93.00
2019-01-04T16:48:07.205Z,93.30
2019-01-04T16:54:17.446Z,94.80
2019-01-04T16:56:47.938Z,95.10
2019-01-04T16:59:18.337Z,95.10
2019-01-04T17:01:48.801Z,95.50
2019-01-04T17:04:19.281Z,96.00
2019-01-04T17:06:49.711Z,96.60
2019-01-04T17:09:20.352Z,97.00
2019-01-04T17:11:50.779Z,97.30
2019-01-04T17:14:21.199Z,97.50
2019-01-04T17:16:51.625Z,97.60
2019-01-04T17:19:22.061Z,97.70
2019-01-04T17:21:52.478Z,97.80
2019-01-04T17:24:22.914Z,97.70
2019-01-04T17:26:53.434Z,97.50
2019-01-04T17:29:23.872Z,97.20
2019-01-04T17:31:54.605Z,96.90
2019-01-04T17:34:26.056Z,96.70
2019-01-04T17:36:56.471Z,96.60
2019-01-04T17:39:26.898Z,96.20
2019-01-04T17:41:57.327Z,96.10
2019-01-04T17:44:27.755Z,96.10
2019-01-04T17:46:58.181Z,95.90
2019-01-04T17:49:28.606Z,95.40
2019-01-04T17:51:59.033Z,95.50
2019-01-04T17:54:29.646Z,95.40
2019-01-04T17:57:00.146Z,95.20
2019-01-04T17:59:30.622Z,95.20
2019-01-04T18:02:01.220Z,95.20
2019-01-04T18:04:31.691Z,94.90
2019-01-04T18:07:02.119Z,95.00
2019-01-04T18:09:32.753Z,95.00
2019-01-04T18:12:03.165Z,94.60
2019-01-04T18:14:33.594Z,94.40
2019-01-04T18:17:04.031Z,94.20
2019-01-04T18:19:34.446Z,94.50
2019-01-04T18:22:04.877Z,94.50
2019-01-04T18:24:35.313Z,94.50
2019-01-04T18:27:05.774Z,94.40
2019-01-04T18:29:36.257Z,94.70
2019-01-04T18:32:06.689Z,94.80
2019-01-04T18:34:37.141Z,94.60
2019-01-04T18:37:23.514Z,94.60
2019-01-04T18:39:55.029Z,94.70
2019-01-04T18:42:25.594Z,94.50
2019-01-04T18:44:56.034Z,94.40
2019-01-04T18:47:26.462Z,94.70
2019-01-04T18:49:57.094Z,94.70
2019-01-04T18:52:27.726Z,94.90
2019-01-04T18:54:58.211Z,94.70
2019-01-04T18:57:28.886Z,95.00
2019-01-04T19:00:19.858Z,94.80
2019-01-04T19:02:50.391Z,95.00
2019-01-04T19:05:20.898Z,95.10
2019-01-04T19:07:51.381Z,95.20
2019-01-04T19:10:22.001Z,95.10
2019-01-04T19:12:52.645Z,95.10
2019-01-04T19:15:32.074Z,95.00
2019-01-04T19:18:02.718Z,95.30
2019-01-04T19:24:13.407Z,95.00
2019-01-04T19:26:45.461Z,94.80
2019-01-04T19:29:15.891Z,95.20
2019-01-04T19:31:46.314Z,95.20
2019-01-04T19:34:34.766Z,95.10
2019-01-04T19:37:22.235Z,95.30
2019-01-04T19:39:52.628Z,95.50
2019-01-04T19:42:26.119Z,95.40
2019-01-04T19:44:56.553Z,95.80
2019-01-04T19:47:26.982Z,95.80
2019-01-04T19:49:57.398Z,95.70
2019-01-04T19:52:27.825Z,95.80
2019-01-04T19:55:22.697Z,95.90
2019-01-04T19:57:53.183Z,96.10
2019-01-04T20:00:23.588Z,96.10
2019-01-04T20:02:54.019Z,96.00
2019-01-04T20:05:53.774Z,96.10
2019-01-04T20:09:31.129Z,96.10
2019-01-04T20:13:10.578Z,96.20
2019-01-04T20:16:26.569Z,96.40
2019-01-04T20:19:14.609Z,96.30
2019-01-04T20:22:02.650Z,96.30
2019-01-04T20:25:43.802Z,96.60
2019-01-04T20:28:51.741Z,97.00
2019-01-04T20:31:41.321Z,96.80
2019-01-04T20:34:29.360Z,97.00
2019-01-04T20:37:20.880Z,97.10
2019-01-04T20:40:17.007Z,97.20
2019-01-04T20:43:09.554Z,97.20
2019-01-04T20:46:03.327Z,97.40
2019-01-04T20:48:52.698Z,97.70
2019-01-04T20:51:41.046Z,97.60
2019-01-04T20:54:29.290Z,97.00
2019-01-04T20:57:17.638Z,96.70
2019-01-04T21:00:25.237Z,96.60
2019-01-04T21:03:32.531Z,96.90
2019-01-04T21:06:27.532Z,97.10
2019-01-04T21:09:11.986Z,97.20
2019-01-04T21:12:00.437Z,97.30
2019-01-04T21:14:53.084Z,97.10
2019-01-04T21:17:54.846Z,97.30
2019-01-04T21:20:42.988Z,97.10
2019-01-04T21:23:34.203Z,97.20
2019-01-04T21:26:32.483Z,97.50
2019-01-04T21:29:24.620Z,97.50
2019-01-04T21:32:18.812Z,97.40
2019-01-04T21:35:24.354Z,97.70
2019-01-04T21:38:48.132Z,97.90
2019-01-04T21:41:47.834Z,98.20
2019-01-04T21:44:49.197Z,98.20
2019-01-04T21:47:44.509Z,98.20
2019-01-04T21:50:37.464Z,98.60
2019-01-04T21:53:41.784Z,98.50
2019-01-04T21:56:34.228Z,98.60
2019-01-04T21:59:22.473Z,98.70
2019-01-04T22:02:16.030Z,98.60
2019-01-04T22:05:11.352Z,98.60
2019-01-04T22:08:00.724Z,98.50
2019-01-04T22:11:05.557Z,98.30
2019-01-04T22:13:53.392Z,98.40
2019-01-04T22:16:41.535Z,98.70
2019-01-04T22:19:36.843Z,98.80
2019-01-04T22:22:28.981Z,99.00
2019-01-04T22:25:36.713Z,98.90
2019-01-04T22:28:26.155Z,99.00
2019-01-04T22:31:14.196Z,99.20
2019-01-04T22:34:15.650Z,99.10
2019-01-04T22:37:03.587Z,99.10
2019-01-04T22:39:51.934Z,98.80
2019-01-04T22:42:39.975Z,98.80
2019-01-04T22:45:27.912Z,98.90
2019-01-04T22:48:29.675Z,98.80
2019-01-04T22:51:17.817Z,98.70
2019-01-04T22:54:05.856Z,98.60
2019-01-04T22:56:58.299Z,98.50
2019-01-04T22:59:46.647Z,98.60
2019-01-04T23:02:34.588Z,98.60
2019-01-04T23:05:32.864Z,98.40
2019-01-04T23:08:17.423Z,98.40
2019-01-04T23:11:00.944Z,98.10
2019-01-04T23:13:49.100Z,98.00
2019-01-04T23:16:44.308Z,97.80
2019-01-04T23:19:40.232Z,97.80
2019-01-04T23:23:10.051Z,97.90
2019-01-04T23:25:59.424Z,97.90
2019-01-04T23:28:48.794Z,97.70
2019-01-04T23:31:45.130Z,98.00
2019-01-04T23:34:33.373Z,98.10
2019-01-04T23:37:38.004Z,98.00
2019-01-04T23:40:47.241Z,97.90
2019-01-04T23:43:35.483Z,97.80
2019-01-04T23:46:33.660Z,98.00
2019-01-04T23:49:29.073Z,98.10
2019-01-04T23:52:17.320Z,98.40
2019-01-04T23:55:15.497Z,98.80
2019-01-04T23:58:03.639Z,98.70
